Time;durP1;ratioP1;P1;durP2;ratioP2;P2;SDS_P1;SDS_P2;PMS_P1;PMS_P2;Temp;Humidity;BMP_temperature;BMP_pressure;BME280_temperature;BME280_humidity;BME280_pressure;Samples;Min_cycle;Max_cycle;Signal;HPM_P1;HPM_P2
2022/11/18 00:00:37;;;;;;;;;;;;;;;19.83;43.58;93997.78;10511175;28;2030;-49
2022/11/18 00:05:53;;;;;;;;;;;;;;;19.78;43.47;93995.31;10500975;28;2129;-51
2022/11/18 00:11:07;;;;;;;;;;;;;;;19.77;43.79;93985.88;10503427;28;2073;-48
2022/11/18 00:16:08;;;;;;;;;;;;;;;19.75;43.97;93982.78;10503643;28;1983;-47
2022/11/18 00:21:09;;;;;;;;;;;;;;;19.72;43.84;93986.06;10507649;28;2125;-48
2022/11/18 00:26:12;;;;;;;;;;;;;;;19.70;43.86;93975.81;10506756;28;2037;-46
2022/11/18 00:31:12;;;;;;;;;;;;;;;19.72;43.74;93970.28;10500932;28;2109;-47
2022/11/18 00:36:13;;;;;;;;;;;;;;;19.70;43.92;93975.06;10513158;28;2037;-46
2022/11/18 00:41:13;;;;;;;;;;;;;;;19.66;43.86;93976.78;10506286;28;2014;-47
2022/11/18 00:46:13;;;;;;;;;;;;;;;19.63;44.10;93967.66;10503128;28;2002;-49
2022/11/18 00:51:14;;;;;;;;;;;;;;;19.69;43.80;93958.53;10508635;28;1996;-48
2022/11/18 00:56:15;;;;;;;;;;;;;;;19.65;43.85;93954.19;10500191;28;2133;-48
2022/11/18 01:01:15;;;;;;;;;;;;;;;19.63;44.03;93961.63;10500857;28;2002;-48
2022/11/18 01:06:15;;;;;;;;;;;;;;;19.60;44.06;93951.72;10506007;28;2072;-45
2022/11/18 01:16:34;;;;;;;;;;;;;;;19.60;43.89;93943.84;10506966;28;2065;-47
2022/11/18 01:21:35;;;;;;;;;;;;;;;19.59;43.97;93947.53;10513509;28;1974;-51
2022/11/18 01:26:35;;;;;;;;;;;;;;;19.54;44.22;93937.94;10512918;28;3124;-46
2022/11/18 01:31:36;;;;;;;;;;;;;;;19.57;44.23;93929.47;10513696;28;1999;-48
2022/11/18 01:36:37;;;;;;;;;;;;;;;19.52;44.09;93910.44;10507207;28;2036;-49
2022/11/18 01:41:37;;;;;;;;;;;;;;;19.52;43.97;93911.22;10505844;28;2128;-50
2022/11/18 01:46:37;;;;;;;;;;;;;;;19.50;44.28;93910.75;10507667;28;2337;-48
2022/11/18 01:51:40;;;;;;;;;;;;;;;19.50;44.11;93916.00;10511926;28;2023;-45
2022/11/18 01:56:44;;;;;;;;;;;;;;;19.48;44.27;93933.94;10506516;28;2007;-48
2022/11/18 02:01:45;;;;;;;;;;;;;;;19.52;43.98;93932.25;10510014;28;2169;-50
2022/11/18 02:06:45;;;;;;;;;;;;;;;19.48;44.15;93936.56;10502908;28;2073;-46
2022/11/18 02:11:55;;;;;;;;;;;;;;;19.43;44.35;93939.38;10504489;28;2016;-45
2022/11/18 02:17:04;;;;;;;;;;;;;;;19.45;44.37;93943.22;10504048;28;2057;-46
2022/11/18 02:22:23;;;;;;;;;;;;;;;19.45;44.39;93945.09;10510703;28;2065;-46
2022/11/18 02:27:26;;;;;;;;;;;;;;;19.47;44.16;93942.91;10510722;28;1983;-48
2022/11/18 02:32:31;;;;;;;;;;;;;;;19.43;44.22;93934.88;10508386;28;2007;-48
2022/11/18 02:37:38;;;;;;;;;;;;;;;19.39;44.31;93931.31;10504952;28;2162;-45
2022/11/18 02:42:42;;;;;;;;;;;;;;;19.44;44.14;93933.00;10508062;28;2035;-46
2022/11/18 02:47:43;;;;;;;;;;;;;;;19.39;44.18;93928.69;10510565;28;1967;-48
2022/11/18 02:52:43;;;;;;;;;;;;;;;19.39;44.21;93928.69;10512378;28;2122;-45
2022/11/18 02:57:48;;;;;;;;;;;;;;;19.37;44.15;93927.47;10503533;28;2144;-49
2022/11/18 03:02:48;;;;;;;;;;;;;;;19.37;44.26;93930.09;10499279;28;2106;-48
2022/11/18 03:07:50;;;;;;;;;;;;;;;19.33;44.22;93937.03;10502975;28;2070;-45
2022/11/18 03:13:04;;;;;;;;;;;;;;;19.36;44.26;93925.91;10507841;28;2061;-48
2022/11/18 03:18:23;;;;;;;;;;;;;;;19.35;44.33;93930.38;10506741;28;1982;-50
2022/11/18 03:23:27;;;;;;;;;;;;;;;19.35;44.21;93932.25;10506501;28;2058;-45
2022/11/18 03:28:42;;;;;;;;;;;;;;;19.30;44.21;93927.13;10503180;28;2038;-49
2022/11/18 03:33:44;;;;;;;;;;;;;;;19.34;44.29;93935.94;10532794;27;2105;-49
2022/11/18 03:38:48;;;;;;;;;;;;;;;19.29;44.09;93943.94;10511286;28;2083;-51
2022/11/18 03:43:53;;;;;;;;;;;;;;;19.30;44.15;93951.53;10503204;28;2044;-46
2022/11/18 03:48:54;;;;;;;;;;;;;;;19.29;44.13;93957.06;10509986;28;2050;-49
2022/11/18 03:53:59;;;;;;;;;;;;;;;19.26;44.31;93966.38;10506293;28;2023;-46
2022/11/18 03:59:01;;;;;;;;;;;;;;;19.26;44.14;93976.88;10510283;28;2042;-51
2022/11/18 04:04:01;;;;;;;;;;;;;;;19.23;44.21;93987.97;10503895;28;2201;-49
2022/11/18 04:09:06;;;;;;;;;;;;;;;19.21;44.17;93992.78;10506632;28;2002;-45
2022/11/18 04:14:06;;;;;;;;;;;;;;;19.21;44.10;94002.50;10498457;28;2066;-47
2022/11/18 04:19:06;;;;;;;;;;;;;;;19.19;44.25;94000.19;10503805;28;2368;-45
2022/11/18 04:24:07;;;;;;;;;;;;;;;19.20;44.14;93990.47;10514048;28;1983;-45
2022/11/18 04:29:07;;;;;;;;;;;;;;;19.21;44.20;93987.50;10512712;28;2043;-45
2022/11/18 04:34:07;;;;;;;;;;;;;;;19.19;44.13;93987.06;10499063;28;2066;-45
2022/11/18 04:39:07;;;;;;;;;;;;;;;19.18;44.19;93984.75;10512820;28;2079;-46
2022/11/18 04:44:11;;;;;;;;;;;;;;;19.19;44.00;93979.16;10512353;28;1964;-47
2022/11/18 04:49:12;;;;;;;;;;;;;;;19.14;44.09;93981.97;10522767;28;2041;-46
2022/11/18 04:54:12;;;;;;;;;;;;;;;19.15;44.01;93983.50;10513180;28;2019;-46
2022/11/18 04:59:13;;;;;;;;;;;;;;;19.11;44.14;93977.31;10514923;28;2057;-49
2022/11/18 05:04:14;;;;;;;;;;;;;;;19.18;44.42;93971.59;10506122;28;2034;-47
2022/11/18 05:09:16;;;;;;;;;;;;;;;19.26;44.27;93974.25;10516078;28;2035;-48
2022/11/18 05:14:16;;;;;;;;;;;;;;;19.37;44.04;93970.25;10512659;28;2077;-46
2022/11/18 05:19:17;;;;;;;;;;;;;;;19.47;44.01;93969.94;10519722;28;2073;-50
2022/11/18 05:24:17;;;;;;;;;;;;;;;19.52;44.10;93981.38;10517497;28;1959;-47
2022/11/18 05:29:18;;;;;;;;;;;;;;;19.60;43.74;93978.03;10512799;28;2002;-49
2022/11/18 05:34:18;;;;;;;;;;;;;;;19.62;43.66;93965.34;10505576;28;2147;-47
2022/11/18 05:39:18;;;;;;;;;;;;;;;19.66;43.38;93974.16;10518109;28;2305;-46
2022/11/18 05:44:19;;;;;;;;;;;;;;;19.68;43.13;93979.88;10509484;28;2095;-46
2022/11/18 05:49:19;;;;;;;;;;;;;;;19.68;42.19;93982.50;10513975;28;1980;-46
2022/11/18 05:54:19;;;;;;;;;;;;;;;19.73;41.82;93982.31;10507981;28;2043;-46
2022/11/18 05:59:20;;;;;;;;;;;;;;;19.77;42.27;93985.88;10517353;28;2390;-47
2022/11/18 06:04:20;;;;;;;;;;;;;;;19.80;42.37;93995.78;10505406;28;2007;-50
2022/11/18 06:09:21;;;;;;;;;;;;;;;19.82;41.49;93994.41;10503404;28;2105;-48
2022/11/18 06:14:26;;;;;;;;;;;;;;;19.83;41.25;93993.31;10507349;28;2092;-45
2022/11/18 06:19:27;;;;;;;;;;;;;;;19.86;41.34;94000.59;10497083;28;2058;-48
2022/11/18 06:24:27;;;;;;;;;;;;;;;19.89;41.24;94007.06;10514323;28;2393;-50
2022/11/18 06:29:28;;;;;;;;;;;;;;;19.93;41.30;94015.88;10513815;28;1986;-48
2022/11/18 06:34:28;;;;;;;;;;;;;;;19.94;41.62;94033.22;10508023;28;2078;-47
2022/11/18 06:39:29;;;;;;;;;;;;;;;19.95;41.15;94034.75;10511867;28;2063;-47
2022/11/18 06:44:34;;;;;;;;;;;;;;;19.96;41.03;94034.44;10514325;28;2058;-46
2022/11/18 06:49:34;;;;;;;;;;;;;;;20.01;41.76;94044.81;10511343;28;2050;-47
2022/11/18 06:54:35;;;;;;;;;;;;;;;20.02;40.44;94058.72;10508510;28;2054;-47
2022/11/18 06:59:35;;;;;;;;;;;;;;;20.03;40.72;94065.56;10517123;28;2038;-48
2022/11/18 07:04:38;;;;;;;;;;;;;;;20.05;40.67;94066.00;10514128;28;2083;-46
2022/11/18 07:09:38;;;;;;;;;;;;;;;20.07;40.77;94077.75;10520885;28;1992;-47
2022/11/18 07:14:38;;;;;;;;;;;;;;;20.07;40.76;94087.53;10516400;28;2071;-47
2022/11/18 07:19:39;;;;;;;;;;;;;;;20.06;40.52;94091.22;10512682;28;2007;-46
2022/11/18 07:24:45;;;;;;;;;;;;;;;20.08;40.88;94099.56;10515330;28;2008;-49
2022/11/18 07:29:46;;;;;;;;;;;;;;;20.07;40.40;94101.44;10509404;28;2011;-49
2022/11/18 07:34:46;;;;;;;;;;;;;;;20.10;41.17;94113.19;10504299;28;2038;-47
2022/11/18 07:39:46;;;;;;;;;;;;;;;20.18;40.91;94120.31;10506822;28;2040;-51
2022/11/18 07:44:47;;;;;;;;;;;;;;;20.18;40.56;94115.03;10502288;28;2258;-47
2022/11/18 07:49:47;;;;;;;;;;;;;;;20.37;41.63;94123.44;10492672;28;2051;-47
2022/11/18 07:54:48;;;;;;;;;;;;;;;20.34;40.67;94134.56;10496367;28;2098;-50
2022/11/18 07:59:48;;;;;;;;;;;;;;;20.37;40.64;94130.56;10505014;28;2626;-52
2022/11/18 08:04:48;;;;;;;;;;;;;;;20.39;40.20;94136.28;10492037;28;2335;-50
2022/11/18 08:09:48;;;;;;;;;;;;;;;20.45;41.49;94141.06;10497296;28;2301;-49
2022/11/18 08:14:49;;;;;;;;;;;;;;;20.55;41.59;94150.50;10494704;28;2255;-48
2022/11/18 08:19:49;;;;;;;;;;;;;;;20.56;41.44;94152.84;10499454;28;2312;-48
2022/11/18 08:24:49;;;;;;;;;;;;;;;20.61;41.69;94155.31;10500702;28;2307;-48
2022/11/18 08:29:49;;;;;;;;;;;;;;;20.58;40.91;94161.22;10498273;28;2311;-51
2022/11/18 08:34:50;;;;;;;;;;;;;;;20.55;41.21;94166.31;10496156;28;2252;-51
2022/11/18 08:39:50;;;;;;;;;;;;;;;20.53;41.23;94163.19;10494142;28;2346;-52
2022/11/18 08:44:51;;;;;;;;;;;;;;;20.50;40.75;94167.25;10495456;28;2438;-51
2022/11/18 08:49:51;;;;;;;;;;;;;;;20.43;40.78;94172.19;10487000;28;2324;-47
2022/11/18 08:54:51;;;;;;;;;;;;;;;20.41;41.12;94171.72;10497484;28;2339;-50
2022/11/18 08:59:52;;;;;;;;;;;;;;;20.38;41.65;94182.88;10498088;28;2303;-50
2022/11/18 09:04:52;;;;;;;;;;;;;;;20.41;41.82;94184.91;10505619;28;2353;-48
2022/11/18 09:09:52;;;;;;;;;;;;;;;20.40;41.32;94193.09;10497828;28;2288;-53
2022/11/18 09:14:53;;;;;;;;;;;;;;;20.42;42.35;94201.47;10504945;28;2355;-47
2022/11/18 09:19:54;;;;;;;;;;;;;;;20.38;42.09;94206.56;10495418;28;2363;-50
2022/11/18 09:24:54;;;;;;;;;;;;;;;20.34;42.04;94218.78;10503538;28;2297;-50
2022/11/18 09:29:55;;;;;;;;;;;;;;;20.34;42.03;94218.03;10507517;28;2378;-50
2022/11/18 09:34:55;;;;;;;;;;;;;;;20.35;42.54;94222.19;10513118;28;2256;-49
2022/11/18 09:39:56;;;;;;;;;;;;;;;20.29;42.14;94221.56;10508352;28;2245;-52
2022/11/18 09:44:59;;;;;;;;;;;;;;;20.27;42.12;94232.41;10504391;28;2277;-48
2022/11/18 09:50:00;;;;;;;;;;;;;;;20.23;42.24;94243.84;10494460;28;2377;-48
2022/11/18 09:55:00;;;;;;;;;;;;;;;20.22;42.09;94247.56;10507339;28;2303;-48
2022/11/18 10:00:00;;;;;;;;;;;;;;;20.25;41.92;94249.59;10503880;28;2293;-51
2022/11/18 10:05:07;;;;;;;;;;;;;;;20.20;42.13;94255.75;10503273;28;2391;-51
2022/11/18 10:10:11;;;;;;;;;;;;;;;20.17;42.14;94260.84;10501567;28;2248;-53
2022/11/18 10:15:24;;;;;;;;;;;;;;;20.16;42.21;94257.44;10508074;28;2323;-50
2022/11/18 10:20:30;;;;;;;;;;;;;;;20.13;42.25;94259.91;10498578;28;2375;-49
2022/11/18 10:25:30;;;;;;;;;;;;;;;20.13;42.31;94259.91;10508177;28;2284;-46
2022/11/18 10:30:30;;;;;;;;;;;;;;;20.12;42.31;94258.34;10509632;28;2232;-46
2022/11/18 10:35:32;;;;;;;;;;;;;;;20.11;42.53;94262.81;10504793;28;2330;-45
2022/11/18 10:40:32;;;;;;;;;;;;;;;20.08;42.50;94260.03;10499867;28;2332;-46
2022/11/18 10:45:33;;;;;;;;;;;;;;;20.04;42.54;94265.13;10499700;28;2327;-46
2022/11/18 10:50:38;;;;;;;;;;;;;;;20.04;42.33;94261.72;10506890;28;2323;-51
2022/11/18 10:55:38;;;;;;;;;;;;;;;19.98;42.42;94253.19;10496718;28;2295;-49
2022/11/18 11:00:41;;;;;;;;;;;;;;;20.01;42.42;94263.09;10510500;28;2392;-52
2022/11/18 11:05:41;;;;;;;;;;;;;;;19.95;42.82;94266.94;10497574;28;2307;-51
2022/11/18 11:10:46;;;;;;;;;;;;;;;19.94;42.76;94251.47;10509857;28;2335;-52
2022/11/18 11:15:47;;;;;;;;;;;;;;;19.93;42.63;94249.91;10493198;28;2275;-52
2022/11/18 11:20:47;;;;;;;;;;;;;;;19.94;42.86;94257.53;10502958;28;2347;-47
2022/11/18 11:25:53;;;;;;;;;;;;;;;19.90;42.89;94247.91;10498603;28;2269;-50
2022/11/18 11:31:02;;;;;;;;;;;;;;;19.91;43.32;94254.72;10495759;28;2251;-51
2022/11/18 11:36:15;;;;;;;;;;;;;;;19.91;43.66;94258.13;10498899;28;2297;-50
2022/11/18 11:41:19;;;;;;;;;;;;;;;19.92;43.82;94266.78;10480410;28;2298;-50
2022/11/18 11:46:22;;;;;;;;;;;;;;;19.94;43.81;94264.63;10495947;28;2300;-51
2022/11/18 11:51:34;;;;;;;;;;;;;;;19.91;44.27;94267.84;10495745;28;2283;-53
2022/11/18 11:56:44;;;;;;;;;;;;;;;19.95;44.95;94269.59;10494463;28;2351;-51
2022/11/18 12:02:03;;;;;;;;;;;;;;;19.98;44.98;94268.19;10501812;28;2439;-51
2022/11/18 12:07:04;;;;;;;;;;;;;;;19.95;45.01;94272.22;10494006;28;2334;-52
2022/11/18 12:12:33;;;;;;;;;;;;;;;19.92;45.00;94275.47;10498555;28;2319;-50
2022/11/18 12:17:38;;;;;;;;;;;;;;;19.93;45.25;94281.47;10492397;28;2296;-48
2022/11/18 12:22:57;;;;;;;;;;;;;;;19.92;45.10;94282.56;10491112;28;2263;-52
2022/11/18 12:27:57;;;;;;;;;;;;;;;19.93;44.95;94286.72;10498723;28;2273;-47
2022/11/18 12:32:58;;;;;;;;;;;;;;;19.89;44.69;94289.22;10498705;28;2375;-48
2022/11/18 12:37:58;;;;;;;;;;;;;;;19.86;44.50;94291.69;10494551;28;2278;-50
2022/11/18 12:48:31;;;;;;;;;;;;;;;19.85;44.24;94298.00;10494141;28;2350;-60
2022/11/18 12:53:35;;;;;;;;;;;;;;;19.81;44.01;94310.19;10496877;28;2305;-48
2022/11/18 12:58:35;;;;;;;;;;;;;;;19.81;44.68;94320.72;10491912;28;2265;-52
2022/11/18 13:03:36;;;;;;;;;;;;;;;19.77;44.54;94320.56;10502490;28;2334;-48
2022/11/18 13:08:37;;;;;;;;;;;;;;;19.76;44.68;94328.75;10511557;28;2338;-51
2022/11/18 13:13:37;;;;;;;;;;;;;;;19.74;44.77;94339.56;10509736;28;2316;-51
2022/11/18 13:18:51;;;;;;;;;;;;;;;19.73;44.80;94337.22;10503258;28;2326;-53
2022/11/18 13:23:58;;;;;;;;;;;;;;;19.71;44.46;94342.00;10507046;28;2346;-49
2022/11/18 13:29:14;;;;;;;;;;;;;;;19.71;44.55;94345.44;10496041;28;2301;-51
2022/11/18 13:34:16;;;;;;;;;;;;;;;19.68;44.45;94343.38;10511488;28;2319;-51
2022/11/18 13:39:19;;;;;;;;;;;;;;;19.68;43.97;94348.66;10509668;28;2554;-54
2022/11/18 13:44:23;;;;;;;;;;;;;;;19.71;44.09;94344.66;10504424;28;2373;-59
2022/11/18 13:49:26;;;;;;;;;;;;;;;19.63;44.67;94346.16;10502363;28;2320;-53
2022/11/18 13:54:26;;;;;;;;;;;;;;;19.63;45.08;94356.66;10508874;28;2247;-52
2022/11/18 13:59:28;;;;;;;;;;;;;;;19.62;45.05;94354.34;10508946;28;2348;-52
2022/11/18 14:04:29;;;;;;;;;;;;;;;19.58;45.31;94354.16;10517480;28;2292;-53
2022/11/18 14:09:29;;;;;;;;;;;;;;;19.58;45.17;94351.53;10507017;28;2270;-53
2022/11/18 14:14:34;;;;;;;;;;;;;;;19.58;45.23;94354.16;10513384;28;2265;-50
2022/11/18 14:19:35;;;;;;;;;;;;;;;19.56;45.38;94360.81;10516067;28;2297;-52
2022/11/18 14:24:35;;;;;;;;;;;;;;;19.56;45.39;94360.81;10514769;28;2321;-52
2022/11/18 14:29:35;;;;;;;;;;;;;;;19.58;46.03;94359.41;10514687;28;2275;-53
2022/11/18 14:34:35;;;;;;;;;;;;;;;19.65;46.26;94361.63;10515025;28;2271;-52
2022/11/18 14:39:36;;;;;;;;;;;;;;;19.72;46.27;94364.63;10509689;28;2311;-54
2022/11/18 14:44:36;;;;;;;;;;;;;;;19.73;45.46;94371.41;10505279;28;2328;-53
2022/11/18 14:49:37;;;;;;;;;;;;;;;19.77;44.23;94377.63;10527424;28;2245;-52
2022/11/18 14:54:37;;;;;;;;;;;;;;;19.73;43.00;94376.66;10527434;28;2287;-51
2022/11/18 14:59:37;;;;;;;;;;;;;;;19.76;42.65;94382.13;10507185;28;2227;-49
2022/11/18 15:04:37;;;;;;;;;;;;;;;19.79;42.54;94383.34;10520248;28;2423;-49
2022/11/18 15:09:38;;;;;;;;;;;;;;;19.86;42.49;94392.38;10506306;28;2271;-52
2022/11/18 15:14:38;;;;;;;;;;;;;;;19.90;42.29;94397.81;10498524;28;2237;-50
2022/11/18 15:19:40;;;;;;;;;;;;;;;19.91;42.08;94400.13;10503313;28;2269;-51
2022/11/18 15:24:40;;;;;;;;;;;;;;;19.93;41.81;94407.72;10505365;28;2314;-48
2022/11/18 15:29:40;;;;;;;;;;;;;;;19.96;41.87;94417.66;10503977;28;2256;-53
2022/11/18 15:34:41;;;;;;;;;;;;;;;20.02;42.58;94417.22;10503060;28;2348;-51
2022/11/18 15:39:41;;;;;;;;;;;;;;;20.05;42.01;94429.00;10502297;28;2278;-51
2022/11/18 15:44:42;;;;;;;;;;;;;;;20.05;41.64;94429.75;10497441;28;2370;-51
2022/11/18 15:49:44;;;;;;;;;;;;;;;20.03;41.59;94428.53;10510968;28;2322;-50
2022/11/18 15:54:44;;;;;;;;;;;;;;;20.01;41.54;94428.81;10506315;28;2289;-50
2022/11/18 15:59:44;;;;;;;;;;;;;;;20.03;41.36;94436.41;10513758;28;2342;-52
2022/11/18 16:04:45;;;;;;;;;;;;;;;20.02;40.99;94433.00;10506158;28;2314;-51
2022/11/18 16:20:23;;;;;;;;;;;;;;;20.05;40.83;94463.94;10502126;28;2277;-51
2022/11/18 16:25:24;;;;;;;;;;;;;;;20.05;40.72;94463.94;10502708;28;2315;-51
2022/11/18 16:35:46;;;;;;;;;;;;;;;20.08;40.38;94478.38;10513124;28;2323;-52
2022/11/18 16:40:55;;;;;;;;;;;;;;;20.08;40.35;94475.72;10503903;28;2320;-49
2022/11/18 16:45:55;;;;;;;;;;;;;;;20.10;40.54;94474.38;10511472;28;2283;-52
2022/11/18 16:51:00;;;;;;;;;;;;;;;20.11;40.38;94468.00;10515783;28;2399;-50
2022/11/18 16:56:03;;;;;;;;;;;;;;;20.13;40.48;94483.50;10504555;28;2284;-52
2022/11/18 17:01:10;;;;;;;;;;;;;;;20.15;40.30;94491.88;10504391;28;2315;-51
2022/11/18 17:06:10;;;;;;;;;;;;;;;20.15;40.33;94494.50;10498171;28;2334;-53
2022/11/18 17:11:10;;;;;;;;;;;;;;;20.16;40.09;94506.56;10508303;28;2332;-53
2022/11/18 17:16:12;;;;;;;;;;;;;;;20.17;39.92;94508.16;10507376;28;2263;-48
2022/11/18 17:21:16;;;;;;;;;;;;;;;20.18;39.88;94514.94;10506250;28;2297;-49
2022/11/18 17:26:17;;;;;;;;;;;;;;;20.20;39.99;94515.44;10513246;28;2292;-49
2022/11/18 17:31:18;;;;;;;;;;;;;;;20.21;39.72;94524.91;10497972;28;2260;-51
2022/11/18 17:36:21;;;;;;;;;;;;;;;20.22;39.87;94521.97;10511141;28;2345;-53
2022/11/18 17:46:41;;;;;;;;;;;;;;;20.24;39.71;94540.09;10501659;28;2309;-54
2022/11/18 17:51:42;;;;;;;;;;;;;;;20.25;39.86;94544.28;10522128;28;2281;-49
2022/11/18 17:56:42;;;;;;;;;;;;;;;20.26;39.65;94543.97;10510043;28;2322;-49
2022/11/18 18:01:43;;;;;;;;;;;;;;;20.26;39.58;94554.50;10501104;28;2244;-48
2022/11/18 18:06:43;;;;;;;;;;;;;;;20.28;39.87;94557.63;10508298;28;2375;-52
2022/11/18 18:11:44;;;;;;;;;;;;;;;20.28;39.41;94562.88;10515970;28;2322;-47
2022/11/18 18:16:45;;;;;;;;;;;;;;;20.28;39.43;94570.78;10508390;28;2302;-47
2022/11/18 18:21:45;;;;;;;;;;;;;;;20.29;39.43;94568.94;10514421;28;2331;-47
2022/11/18 18:26:47;;;;;;;;;;;;;;;20.30;39.61;94567.84;10508009;28;2314;-54
2022/11/18 18:31:51;;;;;;;;;;;;;;;20.32;39.51;94573.56;10513274;28;2395;-50
2022/11/18 18:36:55;;;;;;;;;;;;;;;20.33;39.42;94579.63;10517387;28;2318;-48
2022/11/18 18:41:55;;;;;;;;;;;;;;;20.32;39.34;94578.84;10516234;28;2333;-52
2022/11/18 18:46:56;;;;;;;;;;;;;;;20.38;39.74;94590.03;10512856;28;2257;-50
2022/11/18 18:51:56;;;;;;;;;;;;;;;20.38;39.33;94593.44;10512494;28;2275;-53
2022/11/18 18:56:57;;;;;;;;;;;;;;;20.41;39.35;94587.56;10511904;28;2311;-49
2022/11/18 19:01:58;;;;;;;;;;;;;;;20.42;39.35;94589.16;10512991;28;2297;-52
2022/11/18 19:06:58;;;;;;;;;;;;;;;20.44;39.23;94592.25;10512580;28;2340;-51
2022/11/18 19:17:17;;;;;;;;;;;;;;;20.46;38.96;94600.63;10517693;28;2376;-53
2022/11/18 19:22:17;;;;;;;;;;;;;;;20.47;38.97;94604.81;10514913;28;2342;-52
2022/11/18 19:27:18;;;;;;;;;;;;;;;20.49;38.95;94607.13;10512625;28;2266;-48
2022/11/18 19:32:18;;;;;;;;;;;;;;;20.49;39.16;94610.53;10517478;28;2316;-52
2022/11/18 19:37:19;;;;;;;;;;;;;;;20.50;39.17;94609.47;10516793;28;2329;-51
2022/11/18 19:42:19;;;;;;;;;;;;;;;20.51;39.10;94615.50;10516324;28;2346;-50
2022/11/18 19:47:19;;;;;;;;;;;;;;;20.49;38.84;94613.19;10516938;28;2254;-54
2022/11/18 19:52:19;;;;;;;;;;;;;;;20.47;39.07;94625.06;10515362;28;2302;-53
2022/11/18 19:57:20;;;;;;;;;;;;;;;20.48;38.87;94624.00;10517280;28;2380;-51
2022/11/18 20:02:21;;;;;;;;;;;;;;;20.46;39.19;94615.63;10509393;28;2343;-51
2022/11/18 20:07:21;;;;;;;;;;;;;;;20.45;39.40;94617.50;10511440;28;2320;-50
2022/11/18 20:12:22;;;;;;;;;;;;;;;20.47;39.53;94612.69;10514630;28;2293;-51
2022/11/18 20:17:23;;;;;;;;;;;;;;;20.45;39.53;94619.34;10508865;28;2445;-48
2022/11/18 20:22:23;;;;;;;;;;;;;;;20.46;39.09;94621.69;10510308;28;2310;-50
2022/11/18 20:27:24;;;;;;;;;;;;;;;20.48;39.26;94629.28;10508250;28;2338;-51
2022/11/18 20:32:24;;;;;;;;;;;;;;;20.49;40.18;94631.59;10507079;28;2319;-51
2022/11/18 20:37:24;;;;;;;;;;;;;;;20.49;39.61;94631.59;10514001;28;2410;-51
2022/11/18 20:47:43;;;;;;;;;;;;;;;20.54;40.33;94628.88;10516665;28;2326;-51
2022/11/18 20:52:43;;;;;;;;;;;;;;;20.56;41.37;94637.25;10504817;28;2269;-48
2022/11/18 20:57:43;;;;;;;;;;;;;;;20.55;40.69;94642.78;10514751;28;2281;-48
2022/11/18 21:02:44;;;;;;;;;;;;;;;20.55;41.58;94646.19;10508742;28;2301;-53
2022/11/18 21:07:44;;;;;;;;;;;;;;;20.54;41.49;94655.19;10514230;28;2303;-50
2022/11/18 21:18:04;;;;;;;;;;;;;;;20.50;41.88;94662.13;10505682;28;2293;-49
2022/11/18 21:23:04;;;;;;;;;;;;;;;20.45;41.48;94667.50;10505706;28;2276;-50
2022/11/18 21:28:05;;;;;;;;;;;;;;;20.44;41.78;94671.22;10525106;28;2273;-51
2022/11/18 21:33:05;;;;;;;;;;;;;;;20.41;42.04;94671.81;10514113;28;2294;-52
2022/11/18 21:38:06;;;;;;;;;;;;;;;20.38;41.66;94688.19;10517768;28;2280;-48
2022/11/18 21:43:06;;;;;;;;;;;;;;;20.35;41.72;94688.00;10518148;28;2282;-50
2022/11/18 21:48:06;;;;;;;;;;;;;;;20.32;41.57;94699.13;10524791;28;2315;-50
2022/11/18 21:53:07;;;;;;;;;;;;;;;20.30;41.54;94707.31;10517914;28;2345;-52
2022/11/18 21:58:07;;;;;;;;;;;;;;;20.26;41.67;94706.34;10519928;28;2282;-49
2022/11/18 22:03:08;;;;;;;;;;;;;;;20.25;41.69;94708.22;10521715;28;2279;-54
2022/11/18 22:08:09;;;;;;;;;;;;;;;20.22;41.94;94697.50;10520654;28;2232;-51
2022/11/18 22:13:10;;;;;;;;;;;;;;;20.19;42.27;94703.31;10520934;28;2328;-49
2022/11/18 22:18:10;;;;;;;;;;;;;;;20.15;42.01;94715.53;10514402;28;2255;-52
2022/11/18 22:23:10;;;;;;;;;;;;;;;20.14;41.95;94714.72;10518794;28;2273;-50
2022/11/18 22:28:11;;;;;;;;;;;;;;;20.10;42.03;94712.97;10509896;28;2289;-52
2022/11/18 22:33:11;;;;;;;;;;;;;;;20.07;42.06;94708.31;10513467;28;2273;-52
2022/11/18 22:38:12;;;;;;;;;;;;;;;20.08;42.20;94704.59;10508964;28;2334;-52
2022/11/18 22:43:12;;;;;;;;;;;;;;;20.03;41.93;94707.34;10515196;28;2260;-52
2022/11/18 22:48:12;;;;;;;;;;;;;;;19.99;42.06;94706.38;10520519;28;2378;-53
2022/11/18 22:53:12;;;;;;;;;;;;;;;19.95;42.10;94706.19;10510388;28;2334;-52
2022/11/18 22:58:13;;;;;;;;;;;;;;;19.93;42.46;94707.53;10517456;28;2496;-50
2022/11/18 23:03:18;;;;;;;;;;;;;;;19.92;42.81;94701.53;10511575;28;2342;-47
2022/11/18 23:08:18;;;;;;;;;;;;;;;19.93;43.25;94697.00;10513669;28;2346;-50
2022/11/18 23:18:47;;;;;;;;;;;;;;;19.89;43.50;94707.34;10514647;28;2334;-51
2022/11/18 23:23:47;;;;;;;;;;;;;;;19.91;43.13;94718.34;10512410;28;2316;-52
2022/11/18 23:28:48;;;;;;;;;;;;;;;19.88;43.20;94707.66;10510624;28;2410;-50
2022/11/18 23:33:48;;;;;;;;;;;;;;;19.86;43.28;94709.81;10507176;28;2365;-50
2022/11/18 23:38:48;;;;;;;;;;;;;;;19.84;43.21;94702.22;10510410;28;2494;-49
2022/11/18 23:43:50;;;;;;;;;;;;;;;19.81;43.40;94712.50;10495824;28;2333;-47
2022/11/18 23:48:51;;;;;;;;;;;;;;;19.77;43.33;94711.53;10501555;28;2286;-53
2022/11/18 23:53:54;;;;;;;;;;;;;;;19.78;43.48;94713.13;10508431;28;2367;-48
2022/11/18 23:58:55;;;;;;;;;;;;;;;19.75;43.36;94705.81;10506399;28;2313;-53
